Glencoe, Canada
Current Conditions -  °F | °C
As of 6:00 PM on Wednesday 17 Dec 2014 (Local Time) from CYXU Reporting Station
Light Snow Light Snow  
Wind Chill: 17°   Ceiling: 2200
Heat Index: 28°   Visibility: 15mi
Dew Point: 25°   Wind: 14mph
Humidity: 86%   Direction: 260°W
Pressure: 30"   Gusts: 22mph
Location:  42.75°N, 81.7°W
Report Text: CYXU 172300Z 26012G19KT 15SM -SN SCT016 OVC022 M02/M04 A3000 RMK SC3SC5 PCPN VRY LGT SLP169
Loading
Personal Weather Stations






























Interactive Weather Map New forecast layout! Learn more

10-Day Weather Forecast

Advertisements
Track Severe Weather on mobile